sensor_id;sensor_type;location;lat;lon;timestamp;pressure;altitude;pressure_sealevel;temperature;humidity
26192;BME280;13935;55.672;37.764;2023-10-31T00:00:16;99356.28;;;10.75;100.00
26192;BME280;13935;55.672;37.764;2023-10-31T00:01:37;99368.94;;;10.76;100.00
26192;BME280;13935;55.672;37.764;2023-10-31T00:03:14;99368.94;;;10.69;100.00
26192;BME280;13935;55.672;37.764;2023-10-31T00:04:32;99373.66;;;10.76;100.00
26192;BME280;13935;55.672;37.764;2023-10-31T00:05:38;99373.66;;;10.76;100.00
26192;BME280;13935;55.672;37.764;2023-10-31T00:07:06;99366.16;;;10.76;100.00
26192;BME280;13935;55.672;37.764;2023-10-31T00:08:20;99376.44;;;10.76;100.00
26192;BME280;13935;55.672;37.764;2023-10-31T00:09:30;99379.19;;;10.76;100.00
26192;BME280;13935;55.672;37.764;2023-10-31T00:10:58;99378.44;;;10.72;100.00
26192;BME280;13935;55.672;37.764;2023-10-31T00:12:15;99381.59;;;10.74;100.00
26192;BME280;13935;55.672;37.764;2023-10-31T00:13:30;99380.00;;;10.80;100.00
26192;BME280;13935;55.672;37.764;2023-10-31T00:14:45;99373.66;;;10.76;100.00
26192;BME280;13935;55.672;37.764;2023-10-31T00:15:52;99364.97;;;10.81;100.00
26192;BME280;13935;55.672;37.764;2023-10-31T00:16:59;99367.31;;;10.86;100.00
26192;BME280;13935;55.672;37.764;2023-10-31T00:18:08;99368.09;;;10.90;100.00
26192;BME280;13935;55.672;37.764;2023-10-31T00:19:33;99377.63;;;10.82;100.00
26192;BME280;13935;55.672;37.764;2023-10-31T00:20:49;99370.50;;;10.81;100.00
26192;BME280;13935;55.672;37.764;2023-10-31T00:22:03;99379.97;;;10.87;100.00
26192;BME280;13935;55.672;37.764;2023-10-31T00:23:16;99386.69;;;10.86;100.00
26192;BME280;13935;55.672;37.764;2023-10-31T00:24:30;99384.72;;;10.83;100.00
26192;BME280;13935;55.672;37.764;2023-10-31T00:25:49;99383.09;;;10.89;100.00
26192;BME280;13935;55.672;37.764;2023-10-31T00:26:58;99385.88;;;10.89;100.00
26192;BME280;13935;55.672;37.764;2023-10-31T00:28:03;99379.56;;;10.88;100.00
26192;BME280;13935;55.672;37.764;2023-10-31T00:29:16;99383.91;;;10.93;100.00
26192;BME280;13935;55.672;37.764;2023-10-31T00:30:50;99383.94;;;10.82;100.00
26192;BME280;13935;55.672;37.764;2023-10-31T00:32:14;99379.19;;;10.83;100.00
26192;BME280;13935;55.672;37.764;2023-10-31T00:33:25;99388.28;;;10.80;100.00
26192;BME280;13935;55.672;37.764;2023-10-31T00:34:35;99393.00;;;10.83;100.00
26192;BME280;13935;55.672;37.764;2023-10-31T00:35:55;99391.03;;;10.87;100.00
26192;BME280;13935;55.672;37.764;2023-10-31T00:37:30;99387.88;;;10.85;100.00
26192;BME280;13935;55.672;37.764;2023-10-31T00:38:46;99392.63;;;10.84;100.00
26192;BME280;13935;55.672;37.764;2023-10-31T00:39:57;99400.94;;;10.84;100.00
26192;BME280;13935;55.672;37.764;2023-10-31T00:41:13;99397.38;;;10.84;100.00
26192;BME280;13935;55.672;37.764;2023-10-31T00:42:28;99393.03;;;10.79;100.00
26192;BME280;13935;55.672;37.764;2023-10-31T00:43:42;99407.22;;;10.88;100.00
26192;BME280;13935;55.672;37.764;2023-10-31T00:44:56;99404.06;;;10.83;100.00
26192;BME280;13935;55.672;37.764;2023-10-31T00:46:09;99405.66;;;10.84;100.00
26192;BME280;13935;55.672;37.764;2023-10-31T00:47:54;99415.53;;;10.85;100.00
26192;BME280;13935;55.672;37.764;2023-10-31T00:49:01;99406.84;;;10.86;100.00
26192;BME280;13935;55.672;37.764;2023-10-31T00:50:11;99408.81;;;10.89;100.00
26192;BME280;13935;55.672;37.764;2023-10-31T00:51:27;99406.47;;;10.77;100.00
26192;BME280;13935;55.672;37.764;2023-10-31T00:52:38;99413.59;;;10.82;100.00
26192;BME280;13935;55.672;37.764;2023-10-31T00:53:49;99421.06;;;10.85;100.00
26192;BME280;13935;55.672;37.764;2023-10-31T00:55:21;99417.53;;;10.84;100.00
26192;BME280;13935;55.672;37.764;2023-10-31T00:56:40;99426.22;;;10.86;100.00
26192;BME280;13935;55.672;37.764;2023-10-31T00:57:59;99425.03;;;10.84;100.00
26192;BME280;13935;55.672;37.764;2023-10-31T00:59:38;99429.41;;;10.78;100.00
26192;BME280;13935;55.672;37.764;2023-10-31T01:01:03;99431.38;;;10.88;100.00
26192;BME280;13935;55.672;37.764;2023-10-31T01:02:26;99439.66;;;10.88;100.00
26192;BME280;13935;55.672;37.764;2023-10-31T01:03:38;99436.47;;;10.93;100.00
26192;BME280;13935;55.672;37.764;2023-10-31T01:04:58;99433.72;;;10.89;100.00
26192;BME280;13935;55.672;37.764;2023-10-31T01:06:10;99427.78;;;10.87;100.00
26192;BME280;13935;55.672;37.764;2023-10-31T01:07:23;99437.28;;;10.86;100.00
26192;BME280;13935;55.672;37.764;2023-10-31T01:09:02;99452.69;;;10.91;100.00
26192;BME280;13935;55.672;37.764;2023-10-31T01:10:12;99444.78;;;10.93;100.00
26192;BME280;13935;55.672;37.764;2023-10-31T01:11:19;99438.84;;;10.91;100.00
26192;BME280;13935;55.672;37.764;2023-10-31T01:12:45;99450.31;;;10.96;100.00
26192;BME280;13935;55.672;37.764;2023-10-31T01:13:59;99447.94;;;10.95;100.00
26192;BME280;13935;55.672;37.764;2023-10-31T01:15:12;99449.50;;;10.92;100.00
26192;BME280;13935;55.672;37.764;2023-10-31T01:16:21;99440.44;;;10.92;100.00
26192;BME280;13935;55.672;37.764;2023-10-31T01:17:56;99450.69;;;10.95;100.00
26192;BME280;13935;55.672;37.764;2023-10-31T01:19:18;99440.44;;;10.88;100.00
26192;BME280;13935;55.672;37.764;2023-10-31T01:20:24;99455.06;;;10.89;100.00
26192;BME280;13935;55.672;37.764;2023-10-31T01:21:43;99453.88;;;10.86;100.00
26192;BME280;13935;55.672;37.764;2023-10-31T01:23:07;99451.13;;;10.86;100.00
26192;BME280;13935;55.672;37.764;2023-10-31T01:24:23;99451.13;;;10.83;100.00
26192;BME280;13935;55.672;37.764;2023-10-31T01:25:39;99459.06;;;10.74;100.00
26192;BME280;13935;55.672;37.764;2023-10-31T01:26:44;99456.28;;;10.81;100.00
26192;BME280;13935;55.672;37.764;2023-10-31T01:28:11;99469.31;;;10.84;100.00
26192;BME280;13935;55.672;37.764;2023-10-31T01:29:38;99461.81;;;10.81;100.00
26192;BME280;13935;55.672;37.764;2023-10-31T01:31:11;99468.94;;;10.82;100.00
26192;BME280;13935;55.672;37.764;2023-10-31T01:33:12;99476.41;;;10.85;100.00
26192;BME280;13935;55.672;37.764;2023-10-31T01:34:23;99474.84;;;10.84;100.00
26192;BME280;13935;55.672;37.764;2023-10-31T01:35:44;99482.78;;;10.82;100.00
26192;BME280;13935;55.672;37.764;2023-10-31T01:37:11;99466.94;;;10.86;100.00
26192;BME280;13935;55.672;37.764;2023-10-31T01:38:20;99472.47;;;10.86;100.00
26192;BME280;13935;55.672;37.764;2023-10-31T01:39:36;99478.78;;;10.83;100.00
26192;BME280;13935;55.672;37.764;2023-10-31T01:40:44;99481.19;;;10.81;100.00
26192;BME280;13935;55.672;37.764;2023-10-31T01:42:19;99473.25;;;10.83;100.00
26192;BME280;13935;55.672;37.764;2023-10-31T01:43:35;99483.97;;;10.70;100.00
26192;BME280;13935;55.672;37.764;2023-10-31T01:44:44;99486.72;;;10.70;100.00
26192;BME280;13935;55.672;37.764;2023-10-31T01:45:58;99481.97;;;10.74;100.00
26192;BME280;13935;55.672;37.764;2023-10-31T01:47:04;99481.19;;;10.74;100.00
26192;BME280;13935;55.672;37.764;2023-10-31T01:48:15;99484.38;;;10.72;100.00
26192;BME280;13935;55.672;37.764;2023-10-31T01:49:22;99482.78;;;10.68;100.00
26192;BME280;13935;55.672;37.764;2023-10-31T01:50:34;99491.84;;;10.72;100.00
26192;BME280;13935;55.672;37.764;2023-10-31T01:51:43;99489.84;;;10.76;100.00
26192;BME280;13935;55.672;37.764;2023-10-31T01:52:53;99496.97;;;10.73;100.00
26192;BME280;13935;55.672;37.764;2023-10-31T01:53:59;99492.25;;;10.74;100.00
26192;BME280;13935;55.672;37.764;2023-10-31T01:55:05;99494.63;;;10.79;100.00
26192;BME280;13935;55.672;37.764;2023-10-31T01:56:22;99496.59;;;10.82;100.00
26192;BME280;13935;55.672;37.764;2023-10-31T01:57:29;99491.84;;;10.79;100.00
26192;BME280;13935;55.672;37.764;2023-10-31T01:58:41;99499.38;;;10.82;100.00
26192;BME280;13935;55.672;37.764;2023-10-31T01:59:53;99499.75;;;10.84;100.00
26192;BME280;13935;55.672;37.764;2023-10-31T02:01:04;99503.69;;;10.83;100.00
26192;BME280;13935;55.672;37.764;2023-10-31T02:02:11;99504.09;;;10.85;100.00
26192;BME280;13935;55.672;37.764;2023-10-31T02:03:15;99502.13;;;10.82;100.00
26192;BME280;13935;55.672;37.764;2023-10-31T02:04:34;99496.19;;;10.80;100.00
26192;BME280;13935;55.672;37.764;2023-10-31T02:05:41;99504.91;;;10.82;100.00
26192;BME280;13935;55.672;37.764;2023-10-31T02:06:47;99502.50;;;10.77;100.00
26192;BME280;13935;55.672;37.764;2023-10-31T02:08:12;99497.78;;;10.74;100.00
26192;BME280;13935;55.672;37.764;2023-10-31T02:09:19;99505.69;;;10.79;100.00
26192;BME280;13935;55.672;37.764;2023-10-31T02:10:46;99513.97;;;10.72;100.00
26192;BME280;13935;55.672;37.764;2023-10-31T02:11:59;99513.22;;;10.68;100.00
26192;BME280;13935;55.672;37.764;2023-10-31T02:13:16;99514.38;;;10.70;100.00
26192;BME280;13935;55.672;37.764;2023-10-31T02:14:50;99518.34;;;10.66;100.00
26192;BME280;13935;55.672;37.764;2023-10-31T02:16:12;99520.31;;;10.66;100.00
26192;BME280;13935;55.672;37.764;2023-10-31T02:17:33;99523.09;;;10.69;100.00
26192;BME280;13935;55.672;37.764;2023-10-31T02:18:55;99521.50;;;10.65;100.00
26192;BME280;13935;55.672;37.764;2023-10-31T02:20:45;99527.81;;;10.65;100.00
26192;BME280;13935;55.672;37.764;2023-10-31T02:22:09;99534.16;;;10.66;100.00
26192;BME280;13935;55.672;37.764;2023-10-31T02:23:25;99524.69;;;10.63;100.00
26192;BME280;13935;55.672;37.764;2023-10-31T02:24:51;99549.16;;;10.47;100.00
26192;BME280;13935;55.672;37.764;2023-10-31T02:26:13;99548.38;;;10.47;100.00
26192;BME280;13935;55.672;37.764;2023-10-31T02:27:33;99542.44;;;10.45;100.00
26192;BME280;13935;55.672;37.764;2023-10-31T02:29:21;99542.03;;;10.43;100.00
26192;BME280;13935;55.672;37.764;2023-10-31T02:30:35;99547.56;;;10.46;100.00
26192;BME280;13935;55.672;37.764;2023-10-31T02:31:49;99541.66;;;10.44;100.00
26192;BME280;13935;55.672;37.764;2023-10-31T02:33:21;99538.88;;;10.51;100.00
26192;BME280;13935;55.672;37.764;2023-10-31T02:34:30;99533.75;;;10.50;100.00
26192;BME280;13935;55.672;37.764;2023-10-31T02:35:46;99539.69;;;10.52;100.00
26192;BME280;13935;55.672;37.764;2023-10-31T02:36:59;99537.31;;;10.40;100.00
26192;BME280;13935;55.672;37.764;2023-10-31T02:38:12;99535.31;;;10.33;100.00
26192;BME280;13935;55.672;37.764;2023-10-31T02:39:36;99542.03;;;10.32;100.00
26192;BME280;13935;55.672;37.764;2023-10-31T02:40:41;99540.06;;;10.36;100.00
26192;BME280;13935;55.672;37.764;2023-10-31T02:42:00;99549.53;;;10.42;100.00
26192;BME280;13935;55.672;37.764;2023-10-31T02:43:06;99553.47;;;10.34;100.00
26192;BME280;13935;55.672;37.764;2023-10-31T02:44:20;99551.88;;;10.30;100.00
26192;BME280;13935;55.672;37.764;2023-10-31T02:45:27;99553.84;;;10.22;100.00
26192;BME280;13935;55.672;37.764;2023-10-31T02:46:48;99543.59;;;10.23;100.00
26192;BME280;13935;55.672;37.764;2023-10-31T02:47:56;99547.53;;;10.18;100.00
26192;BME280;13935;55.672;37.764;2023-10-31T02:49:05;99547.91;;;10.20;100.00
26192;BME280;13935;55.672;37.764;2023-10-31T02:50:57;99551.06;;;10.08;100.00
26192;BME280;13935;55.672;37.764;2023-10-31T02:52:12;99555.41;;;10.09;100.00
26192;BME280;13935;55.672;37.764;2023-10-31T02:53:24;99554.19;;;10.03;100.00
26192;BME280;13935;55.672;37.764;2023-10-31T02:55:00;99555.38;;;9.99;100.00
26192;BME280;13935;55.672;37.764;2023-10-31T02:56:18;99549.78;;;9.95;100.00
26192;BME280;13935;55.672;37.764;2023-10-31T02:57:34;99571.53;;;9.93;100.00
26192;BME280;13935;55.672;37.764;2023-10-31T02:58:54;99563.22;;;9.93;100.00
26192;BME280;13935;55.672;37.764;2023-10-31T03:00:15;99568.75;;;9.90;100.00
26192;BME280;13935;55.672;37.764;2023-10-31T03:01:31;99574.25;;;9.87;100.00
26192;BME280;13935;55.672;37.764;2023-10-31T03:02:47;99585.31;;;9.87;100.00
26192;BME280;13935;55.672;37.764;2023-10-31T03:03:58;99573.84;;;9.85;100.00
26192;BME280;13935;55.672;37.764;2023-10-31T03:05:05;99578.19;;;9.86;100.00
26192;BME280;13935;55.672;37.764;2023-10-31T03:06:21;99582.97;;;9.89;100.00
26192;BME280;13935;55.672;37.764;2023-10-31T03:07:28;99586.91;;;9.88;100.00
26192;BME280;13935;55.672;37.764;2023-10-31T03:09:16;99587.28;;;9.90;100.00
26192;BME280;13935;55.672;37.764;2023-10-31T03:10:30;99586.91;;;9.88;100.00
26192;BME280;13935;55.672;37.764;2023-10-31T03:11:41;99587.66;;;9.88;100.00
26192;BME280;13935;55.672;37.764;2023-10-31T03:12:48;99594.81;;;9.93;100.00
26192;BME280;13935;55.672;37.764;2023-10-31T03:14:09;99595.63;;;10.00;100.00
26192;BME280;13935;55.672;37.764;2023-10-31T03:15:16;99591.25;;;9.95;100.00
26192;BME280;13935;55.672;37.764;2023-10-31T03:16:22;99598.81;;;10.02;100.00
26192;BME280;13935;55.672;37.764;2023-10-31T03:17:33;99599.25;;;10.07;100.00
26192;BME280;13935;55.672;37.764;2023-10-31T03:18:40;99602.41;;;10.16;100.00
26192;BME280;13935;55.672;37.764;2023-10-31T03:19:49;99600.03;;;10.15;100.00
26192;BME280;13935;55.672;37.764;2023-10-31T03:20:54;99602.41;;;10.16;100.00
26192;BME280;13935;55.672;37.764;2023-10-31T03:22:00;99603.59;;;10.15;100.00
26192;BME280;13935;55.672;37.764;2023-10-31T03:23:17;99601.22;;;10.17;100.00
26192;BME280;13935;55.672;37.764;2023-10-31T03:24:34;99596.13;;;10.19;100.00
26192;BME280;13935;55.672;37.764;2023-10-31T03:25:52;99600.09;;;10.25;100.00
26192;BME280;13935;55.672;37.764;2023-10-31T03:27:27;99596.50;;;10.28;100.00
26192;BME280;13935;55.672;37.764;2023-10-31T03:28:52;99597.31;;;10.36;100.00
26192;BME280;13935;55.672;37.764;2023-10-31T03:30:17;99598.53;;;10.35;100.00
26192;BME280;13935;55.672;37.764;2023-10-31T03:31:37;99600.88;;;10.36;100.00
26192;BME280;13935;55.672;37.764;2023-10-31T03:32:59;99606.41;;;10.36;100.00
26192;BME280;13935;55.672;37.764;2023-10-31T03:34:20;99611.16;;;10.46;100.00
26192;BME280;13935;55.672;37.764;2023-10-31T03:35:38;99602.88;;;10.43;100.00
26192;BME280;13935;55.672;37.764;2023-10-31T03:37:06;99608.41;;;10.43;100.00
26192;BME280;13935;55.672;37.764;2023-10-31T03:38:38;99609.97;;;10.40;100.00
26192;BME280;13935;55.672;37.764;2023-10-31T03:39:59;99612.34;;;10.35;100.00
26192;BME280;13935;55.672;37.764;2023-10-31T03:41:07;99613.91;;;10.39;100.00
26192;BME280;13935;55.672;37.764;2023-10-31T03:42:19;99608.41;;;10.43;100.00
26192;BME280;13935;55.672;37.764;2023-10-31T03:43:34;99610.78;;;10.44;100.00
26192;BME280;13935;55.672;37.764;2023-10-31T03:47:15;99620.25;;;10.36;100.00
26192;BME280;13935;55.672;37.764;2023-10-31T03:48:54;99617.84;;;10.28;100.00
26192;BME280;13935;55.672;37.764;2023-10-31T03:50:30;99624.13;;;10.21;100.00
26192;BME280;13935;55.672;37.764;2023-10-31T03:51:37;99617.41;;;10.15;100.00
26192;BME280;13935;55.672;37.764;2023-10-31T03:52:46;99623.69;;;10.05;100.00
26192;BME280;13935;55.672;37.764;2023-10-31T03:53:54;99622.50;;;10.03;100.00
26192;BME280;13935;55.672;37.764;2023-10-31T03:55:08;99631.56;;;10.03;100.00
26192;BME280;13935;55.672;37.764;2023-10-31T03:56:14;99636.66;;;9.94;100.00
26192;BME280;13935;55.672;37.764;2023-10-31T03:57:19;99638.22;;;9.92;100.00
26192;BME280;13935;55.672;37.764;2023-10-31T03:58:48;99643.31;;;9.83;100.00
26192;BME280;13935;55.672;37.764;2023-10-31T04:00:09;99641.69;;;9.75;100.00
26192;BME280;13935;55.672;37.764;2023-10-31T04:01:55;99643.19;;;9.66;100.00
26192;BME280;13935;55.672;37.764;2023-10-31T04:03:05;99639.22;;;9.60;100.00
26192;BME280;13935;55.672;37.764;2023-10-31T04:04:23;99639.53;;;9.48;100.00
26192;BME280;13935;55.672;37.764;2023-10-31T04:05:32;99642.28;;;9.44;100.00
26192;BME280;13935;55.672;37.764;2023-10-31T04:06:50;99650.59;;;9.48;100.00
26192;BME280;13935;55.672;37.764;2023-10-31T04:08:01;99647.44;;;9.49;100.00
26192;BME280;13935;55.672;37.764;2023-10-31T04:09:16;99656.13;;;9.48;100.00
26192;BME280;13935;55.672;37.764;2023-10-31T04:10:25;99651.41;;;9.48;100.00
26192;BME280;13935;55.672;37.764;2023-10-31T04:12:01;99657.69;;;9.49;100.00
26192;BME280;13935;55.672;37.764;2023-10-31T04:13:12;99653.75;;;9.46;100.00
26192;BME280;13935;55.672;37.764;2023-10-31T04:14:18;99656.09;;;9.44;100.00
26192;BME280;13935;55.672;37.764;2023-10-31T04:15:25;99658.47;;;9.49;100.00
26192;BME280;13935;55.672;37.764;2023-10-31T04:16:42;99662.06;;;9.50;100.00
26192;BME280;13935;55.672;37.764;2023-10-31T04:17:58;99660.06;;;9.50;100.00
26192;BME280;13935;55.672;37.764;2023-10-31T04:19:07;99666.00;;;9.49;100.00
26192;BME280;13935;55.672;37.764;2023-10-31T04:20:18;99675.84;;;9.50;100.00
26192;BME280;13935;55.672;37.764;2023-10-31T04:21:32;99665.19;;;9.45;100.00
26192;BME280;13935;55.672;37.764;2023-10-31T04:22:40;99667.97;;;9.48;100.00
26192;BME280;13935;55.672;37.764;2023-10-31T04:23:51;99671.47;;;9.45;100.00
26192;BME280;13935;55.672;37.764;2023-10-31T04:24:58;99671.50;;;9.49;100.00
26192;BME280;13935;55.672;37.764;2023-10-31T04:26:12;99672.66;;;9.44;100.00
26192;BME280;13935;55.672;37.764;2023-10-31T04:27:25;99671.09;;;9.47;100.00
26192;BME280;13935;55.672;37.764;2023-10-31T04:28:33;99670.34;;;9.50;100.00
26192;BME280;13935;55.672;37.764;2023-10-31T04:29:38;99677.03;;;9.49;100.00
26192;BME280;13935;55.672;37.764;2023-10-31T04:30:42;99684.53;;;9.52;100.00
26192;BME280;13935;55.672;37.764;2023-10-31T04:31:56;99679.81;;;9.52;100.00
26192;BME280;13935;55.672;37.764;2023-10-31T04:33:09;99685.34;;;9.52;100.00
26192;BME280;13935;55.672;37.764;2023-10-31T04:34:35;99683.03;;;9.58;100.00
26192;BME280;13935;55.672;37.764;2023-10-31T04:35:43;99686.19;;;9.63;100.00
26192;BME280;13935;55.672;37.764;2023-10-31T04:36:50;99682.28;;;9.68;100.00
26192;BME280;13935;55.672;37.764;2023-10-31T04:37:56;99685.50;;;9.73;100.00
26192;BME280;13935;55.672;37.764;2023-10-31T04:39:02;99674.03;;;9.75;100.00
26192;BME280;13935;55.672;37.764;2023-10-31T04:40:07;99675.25;;;9.77;100.00
26192;BME280;13935;55.672;37.764;2023-10-31T04:41:18;99677.59;;;9.79;100.00
26192;BME280;13935;55.672;37.764;2023-10-31T04:42:27;99683.50;;;9.74;100.00
26192;BME280;13935;55.672;37.764;2023-10-31T04:43:58;99683.13;;;9.79;100.00
26192;BME280;13935;55.672;37.764;2023-10-31T04:45:13;99678.41;;;9.76;100.00
26192;BME280;13935;55.672;37.764;2023-10-31T04:46:28;99678.41;;;9.76;100.00
26192;BME280;13935;55.672;37.764;2023-10-31T04:47:45;99691.41;;;9.79;100.00
26192;BME280;13935;55.672;37.764;2023-10-31T04:48:58;99694.19;;;9.79;100.00
26192;BME280;13935;55.672;37.764;2023-10-31T04:50:03;99693.41;;;9.78;100.00
26192;BME280;13935;55.672;37.764;2023-10-31T04:51:06;99691.81;;;9.77;100.00
26192;BME280;13935;55.672;37.764;2023-10-31T04:52:08;99688.66;;;9.79;100.00
26192;BME280;13935;55.672;37.764;2023-10-31T04:53:10;99691.84;;;9.81;100.00
26192;BME280;13935;55.672;37.764;2023-10-31T04:54:13;99699.72;;;9.79;100.00
26192;BME280;13935;55.672;37.764;2023-10-31T04:55:16;99699.72;;;9.79;100.00
26192;BME280;13935;55.672;37.764;2023-10-31T04:56:19;99708.44;;;9.84;100.00
26192;BME280;13935;55.672;37.764;2023-10-31T04:57:22;99698.94;;;9.78;100.00
26192;BME280;13935;55.672;37.764;2023-10-31T04:58:24;99708.00;;;9.79;100.00
26192;BME280;13935;55.672;37.764;2023-10-31T04:59:27;99710.38;;;9.84;100.00
26192;BME280;13935;55.672;37.764;2023-10-31T05:00:29;99712.38;;;9.83;100.00
26192;BME280;13935;55.672;37.764;2023-10-31T05:01:33;99709.22;;;9.85;100.00
26192;BME280;13935;55.672;37.764;2023-10-31T05:02:44;99710.03;;;9.85;100.00
26192;BME280;13935;55.672;37.764;2023-10-31T05:03:55;99708.84;;;9.90;100.00
26192;BME280;13935;55.672;37.764;2023-10-31T05:05:18;99709.28;;;9.95;100.00
26192;BME280;13935;55.672;37.764;2023-10-31T05:06:23;99708.56;;;9.98;100.00
26192;BME280;13935;55.672;37.764;2023-10-31T05:07:26;99716.44;;;9.99;100.00
26192;BME280;13935;55.672;37.764;2023-10-31T05:08:30;99712.50;;;10.00;100.00
26192;BME280;13935;55.672;37.764;2023-10-31T05:09:32;99710.13;;;10.02;100.00
26192;BME280;13935;55.672;37.764;2023-10-31T05:10:34;99716.50;;;10.06;100.00
26192;BME280;13935;55.672;37.764;2023-10-31T05:11:36;99714.91;;;10.05;100.00
26192;BME280;13935;55.672;37.764;2023-10-31T05:12:38;99714.13;;;10.08;100.00
26192;BME280;13935;55.672;37.764;2023-10-31T05:13:40;99717.28;;;10.10;100.00
26192;BME280;13935;55.672;37.764;2023-10-31T05:14:42;99723.63;;;10.14;100.00
26192;BME280;13935;55.672;37.764;2023-10-31T05:15:44;99717.28;;;10.10;100.00
26192;BME280;13935;55.672;37.764;2023-10-31T05:16:49;99719.59;;;9.98;100.00
26192;BME280;13935;55.672;37.764;2023-10-31T05:17:53;99717.25;;;10.03;100.00
26192;BME280;13935;55.672;37.764;2023-10-31T05:18:58;99713.75;;;10.10;100.00
26192;BME280;13935;55.672;37.764;2023-10-31T05:20:12;99715.28;;;10.00;100.00
26192;BME280;13935;55.672;37.764;2023-10-31T05:21:19;99716.84;;;10.01;100.00
26192;BME280;13935;55.672;37.764;2023-10-31T05:22:23;99715.19;;;9.93;100.00
26192;BME280;13935;55.672;37.764;2023-10-31T05:23:27;99719.13;;;9.89;100.00
26192;BME280;13935;55.672;37.764;2023-10-31T05:24:30;99720.31;;;9.92;100.00
26192;BME280;13935;55.672;37.764;2023-10-31T05:25:35;99721.97;;;9.99;100.00
26192;BME280;13935;55.672;37.764;2023-10-31T05:26:39;99718.41;;;9.99;100.00
26192;BME280;13935;55.672;37.764;2023-10-31T05:27:42;99723.88;;;9.95;100.00
26192;BME280;13935;55.672;37.764;2023-10-31T05:28:45;99721.97;;;9.99;100.00
26192;BME280;13935;55.672;37.764;2023-10-31T05:29:48;99727.53;;;10.06;100.00
26192;BME280;13935;55.672;37.764;2023-10-31T05:30:51;99731.88;;;10.11;100.00
26192;BME280;13935;55.672;37.764;2023-10-31T05:31:53;99726.00;;;10.12;100.00
26192;BME280;13935;55.672;37.764;2023-10-31T05:32:58;99726.47;;;10.28;100.00
26192;BME280;13935;55.672;37.764;2023-10-31T05:34:02;99727.28;;;10.29;100.00
26192;BME280;13935;55.672;37.764;2023-10-31T05:35:05;99735.63;;;10.46;100.00
26192;BME280;13935;55.672;37.764;2023-10-31T05:36:23;99729.69;;;10.51;100.00
26192;BME280;13935;55.672;37.764;2023-10-31T05:37:26;99739.59;;;10.52;100.00
26192;BME280;13935;55.672;37.764;2023-10-31T05:38:28;99728.56;;;10.59;100.00
26192;BME280;13935;55.672;37.764;2023-10-31T05:39:30;99736.50;;;10.71;100.00
26192;BME280;13935;55.672;37.764;2023-10-31T05:40:32;99744.41;;;10.69;100.00
26192;BME280;13935;55.672;37.764;2023-10-31T05:41:37;99735.72;;;10.74;100.00
26192;BME280;13935;55.672;37.764;2023-10-31T05:42:39;99746.81;;;10.77;100.00
26192;BME280;13935;55.672;37.764;2023-10-31T05:43:43;99741.28;;;10.81;100.00
26192;BME280;13935;55.672;37.764;2023-10-31T05:44:45;99742.44;;;10.76;100.00
26192;BME280;13935;55.672;37.764;2023-10-31T05:45:48;99742.06;;;10.85;100.00
26192;BME280;13935;55.672;37.764;2023-10-31T05:46:58;99747.22;;;10.86;100.00
26192;BME280;13935;55.672;37.764;2023-10-31T05:48:00;99753.53;;;10.83;100.00
26192;BME280;13935;55.672;37.764;2023-10-31T05:49:10;99753.97;;;10.96;100.00
26192;BME280;13935;55.672;37.764;2023-10-31T05:50:16;99756.34;;;10.94;100.00
26192;BME280;13935;55.672;37.764;2023-10-31T05:51:19;99750.00;;;10.93;100.00
26192;BME280;13935;55.672;37.764;2023-10-31T05:52:21;99762.66;;;10.91;100.00
26192;BME280;13935;55.672;37.764;2023-10-31T05:53:23;99755.53;;;10.90;100.00
26192;BME280;13935;55.672;37.764;2023-10-31T05:54:25;99757.91;;;10.88;100.00
26192;BME280;13935;55.672;37.764;2023-10-31T05:55:28;99760.31;;;10.96;100.00
26192;BME280;13935;55.672;37.764;2023-10-31T05:56:31;99757.13;;;10.98;100.00
26192;BME280;13935;55.672;37.764;2023-10-31T05:57:33;99759.94;;;11.05;100.00
26192;BME280;13935;55.672;37.764;2023-10-31T05:58:37;99769.00;;;11.02;100.00
26192;BME280;13935;55.672;37.764;2023-10-31T05:59:39;99760.31;;;11.00;100.00
26192;BME280;13935;55.672;37.764;2023-10-31T06:00:41;99762.69;;;11.05;100.00
26192;BME280;13935;55.672;37.764;2023-10-31T06:01:43;99757.94;;;11.09;100.00
26192;BME280;13935;55.672;37.764;2023-10-31T06:02:45;99769.84;;;11.13;100.00
26192;BME280;13935;55.672;37.764;2023-10-31T06:03:52;99772.22;;;11.18;100.00
26192;BME280;13935;55.672;37.764;2023-10-31T06:04:56;99776.56;;;11.29;100.00
26192;BME280;13935;55.672;37.764;2023-10-31T06:06:07;99776.97;;;11.28;100.00
26192;BME280;13935;55.672;37.764;2023-10-31T06:07:11;99779.34;;;11.22;100.00
26192;BME280;13935;55.672;37.764;2023-10-31T06:08:15;99782.09;;;11.19;100.00
26192;BME280;13935;55.672;37.764;2023-10-31T06:09:20;99784.88;;;11.26;100.00
26192;BME280;13935;55.672;37.764;2023-10-31T06:10:25;99790.81;;;11.28;100.00
26192;BME280;13935;55.672;37.764;2023-10-31T06:11:28;99791.97;;;11.20;100.00
26192;BME280;13935;55.672;37.764;2023-10-31T06:12:34;99791.63;;;11.28;100.00
26192;BME280;13935;55.672;37.764;2023-10-31T06:13:42;99792.38;;;11.22;100.00
26192;BME280;13935;55.672;37.764;2023-10-31T06:14:57;99799.09;;;11.21;100.00
26192;BME280;13935;55.672;37.764;2023-10-31T06:16:05;99803.88;;;11.34;100.00
26192;BME280;13935;55.672;37.764;2023-10-31T06:17:09;99806.25;;;11.36;100.00
26192;BME280;13935;55.672;37.764;2023-10-31T06:18:21;99796.78;;;11.40;100.00
26192;BME280;13935;55.672;37.764;2023-10-31T06:19:26;99806.66;;;11.38;100.00
26192;BME280;13935;55.672;37.764;2023-10-31T06:20:29;99809.44;;;11.38;100.00
26192;BME280;13935;55.672;37.764;2023-10-31T06:21:34;99810.22;;;11.41;100.00